Time;durP1;ratioP1;P1;durP2;ratioP2;P2;SDS_P1;SDS_P2;PMS_P1;PMS_P2;Temp;Humidity;BMP_temperature;BMP_pressure;BME280_temperature;BME280_humidity;BME280_pressure;Samples;Min_cycle;Max_cycle;Signal;HPM_P1;HPM_P2
2022/06/25 00:00:55;;;;;;;2.95;1.60;;;;;;;19.39;78.49;100871.91;5007324;28;20026;-65
2022/06/25 00:03:20;;;;;;;5.82;1.60;;;;;;;19.32;78.52;100868.50;5007599;28;20037;-65
2022/06/25 00:05:46;;;;;;;3.50;2.00;;;;;;;19.32;78.31;100859.81;5011057;28;20030;-65
2022/06/25 00:08:11;;;;;;;6.15;2.10;;;;;;;19.34;78.68;100864.13;5009031;28;20033;-65
2022/06/25 00:10:37;;;;;;;3.38;1.52;;;;;;;19.31;78.87;100866.75;5009848;28;20045;-65
2022/06/25 00:13:03;;;;;;;3.03;1.52;;;;;;;19.31;78.58;100865.91;5005770;28;20038;-65
2022/06/25 00:15:28;;;;;;;4.47;1.83;;;;;;;19.29;78.35;100852.84;5001866;28;20477;-65
2022/06/25 00:17:53;;;;;;;2.60;1.70;;;;;;;19.31;78.38;100871.13;4992310;28;20041;-65
2022/06/25 00:20:19;;;;;;;2.40;1.70;;;;;;;19.25;77.85;100872.88;5013628;28;20052;-65
2022/06/25 00:22:44;;;;;;;2.53;1.60;;;;;;;19.22;77.90;100870.28;5014088;28;20072;-65
2022/06/25 00:25:10;;;;;;;1.75;1.40;;;;;;;19.19;78.50;100877.28;5012640;28;20037;-65
2022/06/25 00:27:35;;;;;;;1.88;1.40;;;;;;;19.21;78.16;100867.69;5010132;28;20046;-65
2022/06/25 00:30:01;;;;;;;1.98;1.48;;;;;;;19.19;77.93;100865.13;5015818;28;20032;-65
2022/06/25 00:32:26;;;;;;;2.80;1.70;;;;;;;19.19;78.23;100870.31;4993438;28;20473;-65
2022/06/25 00:34:52;;;;;;;3.30;1.48;;;;;;;19.15;78.74;100872.97;5011754;28;20563;-65
2022/06/25 00:37:17;;;;;;;4.57;1.60;;;;;;;19.17;78.91;100872.09;5014160;28;20045;-65
2022/06/25 00:39:44;;;;;;;2.92;1.60;;;;;;;19.12;78.78;100870.38;5014634;28;20079;-65
2022/06/25 00:42:11;;;;;;;2.22;1.48;;;;;;;19.13;78.03;100872.97;5008700;28;20044;-65
2022/06/25 00:44:37;;;;;;;5.50;1.77;;;;;;;19.05;78.06;100872.19;5013440;28;20022;-65
2022/06/25 00:47:04;;;;;;;4.28;1.58;;;;;;;19.06;78.59;100875.63;5012600;28;20039;-65
2022/06/25 00:49:30;;;;;;;2.47;1.83;;;;;;;19.07;78.64;100870.41;5013406;28;20052;-65
2022/06/25 00:51:57;;;;;;;4.18;1.80;;;;;;;19.03;78.25;100877.38;5007906;28;20473;-65
2022/06/25 00:54:24;;;;;;;2.58;1.85;;;;;;;19.06;78.39;100881.72;5009556;28;20032;-65
2022/06/25 00:56:51;;;;;;;2.08;1.70;;;;;;;19.08;78.38;100872.13;5007153;28;20030;-65
2022/06/25 00:59:26;;;;;;;3.60;1.70;;;;;;;19.09;78.53;100878.22;4994735;28;20026;-65
2022/06/25 01:01:51;;;;;;;3.33;1.50;;;;;;;19.02;78.76;100883.47;5001176;28;20485;-65
2022/06/25 01:04:17;;;;;;;3.47;1.60;;;;;;;18.99;79.03;100888.72;5010039;28;20081;-65
2022/06/25 01:06:42;;;;;;;2.80;1.77;;;;;;;19.03;78.82;100892.16;5015628;28;20033;-65
2022/06/25 01:09:08;;;;;;;3.30;1.80;;;;;;;18.99;78.27;100890.47;5015470;28;20483;-65
2022/06/25 01:11:33;;;;;;;3.55;1.80;;;;;;;18.96;78.62;100888.72;5009797;28;20042;-65
2022/06/25 01:13:59;;;;;;;5.35;1.80;;;;;;;18.94;78.52;100900.03;5010045;28;20108;-65
2022/06/25 01:16:24;;;;;;;2.88;1.63;;;;;;;18.97;78.42;100905.22;5011997;28;20033;-65
2022/06/25 01:18:50;;;;;;;4.97;2.45;;;;;;;18.90;78.42;100890.50;5011348;28;20025;-65
2022/06/25 01:21:15;;;;;;;2.95;1.83;;;;;;;18.83;78.55;100904.44;5010971;28;20468;-65
2022/06/25 01:23:41;;;;;;;4.43;1.80;;;;;;;18.86;79.21;100907.00;5012111;28;20073;-65
2022/06/25 01:26:07;;;;;;;2.15;1.67;;;;;;;18.87;78.99;100913.94;5012989;28;20034;-65
2022/06/25 01:28:32;;;;;;;4.60;1.75;;;;;;;18.83;78.48;100913.09;5009053;28;20091;-65
2022/06/25 01:30:58;;;;;;;5.18;1.95;;;;;;;18.82;78.76;100914.00;5003387;28;20029;-65
2022/06/25 01:33:23;;;;;;;3.40;1.70;;;;;;;18.84;78.50;100917.44;5009995;28;21876;-65
2022/06/25 01:35:49;;;;;;;2.75;1.80;;;;;;;18.80;78.72;100918.31;5012293;28;20116;-65
2022/06/25 01:38:15;;;;;;;3.15;1.90;;;;;;;18.84;78.46;100913.97;5012165;28;20038;-65
2022/06/25 01:40:40;;;;;;;4.35;1.75;;;;;;;18.83;78.60;100920.06;4993319;28;20034;-65
2022/06/25 01:43:05;;;;;;;4.00;2.15;;;;;;;18.77;78.74;100922.69;5010200;28;20021;-65
2022/06/25 01:45:32;;;;;;;3.63;2.00;;;;;;;18.81;78.04;100933.09;5009231;28;20037;-65
2022/06/25 01:47:59;;;;;;;3.58;2.00;;;;;;;18.78;78.99;100927.03;5011256;28;20032;-65
2022/06/25 01:50:26;;;;;;;3.28;2.00;;;;;;;18.71;78.58;100929.66;5008322;28;22976;-65
2022/06/25 01:52:52;;;;;;;4.13;2.22;;;;;;;18.72;78.38;100927.91;5010032;28;20026;-65
2022/06/25 01:55:18;;;;;;;5.85;2.10;;;;;;;18.68;78.65;100928.78;5011368;28;20034;-65
2022/06/25 01:57:45;;;;;;;7.60;1.85;;;;;;;18.69;78.96;100934.03;5010941;28;20461;-65
2022/06/25 02:00:16;;;;;;;3.47;2.15;;;;;;;18.68;79.02;100942.69;5015506;28;20516;-65
2022/06/25 02:02:42;;;;;;;3.17;1.92;;;;;;;18.66;78.72;100954.81;5011604;28;20029;-65
2022/06/25 02:05:08;;;;;;;3.15;1.90;;;;;;;18.67;78.37;100956.59;5009836;28;20572;-64
2022/06/25 02:07:34;;;;;;;4.32;2.05;;;;;;;18.64;78.68;100958.31;5012315;28;20050;-65
2022/06/25 02:09:59;;;;;;;3.97;1.92;;;;;;;18.62;78.23;100960.03;5007323;28;20033;-65
2022/06/25 02:12:25;;;;;;;5.68;2.08;;;;;;;18.60;78.04;100957.44;4990204;28;20033;-65
2022/06/25 02:14:50;;;;;;;5.00;2.30;;;;;;;18.58;78.47;100963.56;5010302;28;20033;-65
2022/06/25 02:17:16;;;;;;;3.22;1.95;;;;;;;18.59;78.41;100967.88;5010919;28;20684;-64
2022/06/25 02:19:41;;;;;;;2.40;1.77;;;;;;;18.54;77.94;100965.28;5012194;28;20021;-64
2022/06/25 02:22:07;;;;;;;5.20;2.00;;;;;;;18.56;78.20;100968.75;5009477;28;20029;-64
2022/06/25 02:24:32;;;;;;;3.90;2.15;;;;;;;18.52;78.61;100971.38;4990967;28;20062;-64
2022/06/25 02:26:58;;;;;;;4.68;2.25;;;;;;;18.50;78.70;100971.34;5010688;28;20068;-65
2022/06/25 02:29:24;;;;;;;5.30;2.22;;;;;;;18.48;79.45;100973.13;5008398;28;20461;-65
2022/06/25 02:31:50;;;;;;;4.10;2.17;;;;;;;18.48;78.90;100970.50;5009963;28;20049;-65
2022/06/25 02:34:15;;;;;;;4.15;2.15;;;;;;;18.44;78.46;100976.59;5012625;28;20483;-65
2022/06/25 02:36:41;;;;;;;4.55;2.03;;;;;;;18.42;78.37;100980.94;5008852;28;20030;-65
2022/06/25 02:39:06;;;;;;;5.18;2.33;;;;;;;18.39;78.37;100987.03;5007073;28;20539;-64
2022/06/25 02:41:31;;;;;;;5.88;2.30;;;;;;;18.39;78.43;100988.78;5010179;28;20029;-64
2022/06/25 02:43:57;;;;;;;4.70;2.10;;;;;;;18.40;78.48;100987.91;5010826;28;20109;-64
2022/06/25 02:46:22;;;;;;;3.03;2.30;;;;;;;18.38;78.16;100987.91;5008130;28;20044;-65
2022/06/25 02:48:47;;;;;;;6.22;2.30;;;;;;;18.32;78.31;100993.13;5011872;28;20030;-64
2022/06/25 02:51:13;;;;;;;4.13;2.42;;;;;;;18.35;78.61;101000.03;5012402;28;20124;-65
2022/06/25 02:53:39;;;;;;;4.38;2.40;;;;;;;18.29;78.55;101005.25;5010113;28;20113;-64
2022/06/25 02:58:55;;;;;;;5.35;2.88;;;;;;;18.26;78.53;100997.44;5007337;28;20120;-64
2022/06/25 03:01:22;;;;;;;6.05;2.70;;;;;;;18.27;78.49;101001.81;5009102;28;20149;-64
2022/06/25 03:03:47;;;;;;;3.70;2.35;;;;;;;18.21;78.75;101000.94;5007996;28;20049;-65
2022/06/25 03:06:13;;;;;;;5.85;2.25;;;;;;;18.25;78.60;101003.53;4992472;28;20056;-65
2022/06/25 03:08:39;;;;;;;3.47;2.30;;;;;;;18.15;79.07;101011.34;5008105;28;20034;-64
2022/06/25 03:11:05;;;;;;;3.88;2.35;;;;;;;18.18;79.28;101006.13;5012296;28;21074;-64
2022/06/25 03:13:34;;;;;;;7.43;2.63;;;;;;;18.16;79.28;101005.28;5005445;28;20025;-64
2022/06/25 03:16:03;;;;;;;4.25;2.50;;;;;;;18.18;79.02;101006.13;5007811;28;20026;-65
2022/06/25 03:18:28;;;;;;;4.55;2.70;;;;;;;18.12;78.79;101007.88;5007979;28;20189;-65
2022/06/25 03:20:54;;;;;;;3.85;2.28;;;;;;;18.11;78.95;101007.00;5007256;28;20108;-64
2022/06/25 03:23:19;;;;;;;6.20;2.60;;;;;;;18.12;78.49;101007.88;5007582;28;20033;-65
2022/06/25 03:25:46;;;;;;;4.55;2.45;;;;;;;18.09;78.73;101015.69;5008300;28;20105;-64
2022/06/25 03:28:11;;;;;;;5.22;2.67;;;;;;;18.09;78.72;101011.34;5005224;28;20060;-65
2022/06/25 03:30:37;;;;;;;5.72;2.70;;;;;;;18.11;78.51;101014.81;5001714;28;20488;-65
2022/06/25 03:33:03;;;;;;;6.50;2.85;;;;;;;18.04;78.61;101013.09;5001446;28;20033;-65
2022/06/25 03:35:28;;;;;;;5.95;2.83;;;;;;;18.05;78.85;101020.03;5007126;28;20022;-64
2022/06/25 03:37:54;;;;;;;5.13;2.63;;;;;;;18.05;79.08;101021.75;5009727;28;20032;-64
2022/06/25 03:40:20;;;;;;;5.22;2.80;;;;;;;18.09;78.55;101026.97;4993367;28;20088;-64
2022/06/25 03:42:45;;;;;;;4.88;2.72;;;;;;;18.04;78.62;101023.50;5005218;28;20041;-64
2022/06/25 03:45:11;;;;;;;11.65;2.92;;;;;;;18.07;78.59;101017.41;5008568;28;20034;-65
2022/06/25 03:47:36;;;;;;;4.60;2.70;;;;;;;18.06;78.69;101021.75;5004634;28;20412;-64
2022/06/25 03:50:02;;;;;;;6.65;2.90;;;;;;;18.05;79.03;101025.22;5009791;28;20113;-64
2022/06/25 03:52:27;;;;;;;4.60;2.58;;;;;;;18.05;79.20;101025.22;5015054;28;20030;-65
2022/06/25 03:54:53;;;;;;;7.70;3.20;;;;;;;18.09;79.03;101023.50;5010976;28;20053;-65
2022/06/25 03:57:18;;;;;;;8.25;3.10;;;;;;;18.08;79.67;101033.06;5016789;28;20507;-65
2022/06/25 03:59:43;;;;;;;4.75;2.58;;;;;;;18.06;79.87;101032.16;5012057;28;20125;-64
2022/06/25 04:02:09;;;;;;;9.75;3.35;;;;;;;18.12;79.26;101029.56;4994013;28;20038;-65
2022/06/25 04:04:34;;;;;;;5.70;2.90;;;;;;;18.10;79.41;101031.31;5011010;28;20064;-65
2022/06/25 04:07:00;;;;;;;4.03;2.80;;;;;;;18.12;79.89;101026.09;5008552;28;20060;-65
2022/06/25 04:09:25;;;;;;;4.70;2.78;;;;;;;18.13;79.27;101033.88;5012351;28;20053;-64
2022/06/25 04:11:50;;;;;;;8.07;3.00;;;;;;;18.15;79.84;101031.31;4993989;28;20038;-64
2022/06/25 04:14:16;;;;;;;3.78;2.67;;;;;;;18.16;79.73;101023.50;5010184;28;20030;-65
2022/06/25 04:16:41;;;;;;;5.10;2.80;;;;;;;18.14;80.10;101029.56;5009245;28;20501;-64
2022/06/25 04:19:06;;;;;;;4.07;2.55;;;;;;;18.17;80.02;101038.25;5008539;28;20037;-64
2022/06/25 04:21:32;;;;;;;3.95;2.58;;;;;;;18.19;79.80;101035.63;5013831;28;20039;-64
2022/06/25 04:23:58;;;;;;;4.60;2.45;;;;;;;18.20;80.12;101029.53;5009999;28;20040;-64
2022/06/25 04:26:23;;;;;;;3.53;2.60;;;;;;;18.18;80.07;101037.38;4996498;28;20034;-64
2022/06/25 04:29:04;;;;;;;5.90;2.38;;;;;;;18.24;79.52;101036.50;5013063;28;20469;-65
2022/06/25 04:31:33;;;;;;;13.60;2.63;;;;;;;18.25;80.24;101040.81;5012573;28;20033;-64
2022/06/25 04:33:59;;;;;;;5.97;2.60;;;;;;;18.26;79.84;101034.78;5014746;28;20156;-64
2022/06/25 04:36:25;;;;;;;8.63;2.38;;;;;;;18.23;79.81;101035.63;5011253;28;20116;-65
2022/06/25 04:38:50;;;;;;;8.48;3.00;;;;;;;18.26;80.08;101044.28;5012079;28;20025;-64
2022/06/25 04:41:16;;;;;;;4.80;2.67;;;;;;;18.28;80.59;101048.66;5009407;28;20084;-65
2022/06/25 04:43:42;;;;;;;4.20;2.50;;;;;;;18.30;80.07;101053.84;5006656;28;20034;-64
2022/06/25 04:46:07;;;;;;;6.45;3.25;;;;;;;18.31;80.75;101053.84;5007639;28;20022;-64
2022/06/25 04:48:33;;;;;;;6.80;3.75;;;;;;;18.32;80.80;101052.09;5011205;28;20184;-64
2022/06/25 04:50:58;;;;;;;7.75;2.88;;;;;;;18.39;80.13;101062.53;5012269;28;20389;-65
2022/06/25 04:53:23;;;;;;;5.80;2.80;;;;;;;18.39;80.74;101056.47;5014334;28;20045;-64
2022/06/25 04:55:49;;;;;;;4.70;2.80;;;;;;;18.43;80.51;101065.97;5011457;28;20404;-64
2022/06/25 04:58:14;;;;;;;7.13;2.80;;;;;;;18.48;80.30;101066.84;5006974;28;20116;-64
2022/06/25 05:00:40;;;;;;;4.57;2.45;;;;;;;18.52;80.21;101073.81;5004208;28;20034;-65
2022/06/25 05:03:06;;;;;;;8.98;2.92;;;;;;;18.60;79.96;101071.19;5011244;28;20048;-65
2022/06/25 05:05:31;;;;;;;11.07;2.80;;;;;;;18.63;79.53;101071.19;5007677;28;20500;-64
2022/06/25 05:07:56;;;;;;;5.05;2.55;;;;;;;18.65;79.85;101067.69;5011323;28;20033;-65
2022/06/25 05:10:23;;;;;;;5.00;2.75;;;;;;;18.68;79.44;101072.91;5010728;28;20045;-64
2022/06/25 05:15:33;;;;;;;5.35;2.50;;;;;;;18.71;79.10;101075.53;5009666;28;20048;-64
2022/06/25 05:17:59;;;;;;;6.13;2.40;;;;;;;18.74;79.92;101079.84;5011050;28;20025;-64
2022/06/25 05:20:25;;;;;;;5.30;2.55;;;;;;;18.73;79.05;101079.00;5010701;28;20034;-65
2022/06/25 05:22:50;;;;;;;3.38;2.10;;;;;;;18.75;78.73;101079.00;5012541;28;20403;-64
2022/06/25 05:25:16;;;;;;;8.77;2.63;;;;;;;18.77;78.74;101089.41;4996615;28;20025;-65
2022/06/25 05:27:41;;;;;;;3.60;2.28;;;;;;;18.75;78.73;101086.81;5015444;28;20034;-65
2022/06/25 05:30:07;;;;;;;4.60;2.20;;;;;;;18.79;79.27;101092.88;5013751;28;20033;-65
2022/06/25 05:32:33;;;;;;;8.07;2.40;;;;;;;18.82;79.14;101090.28;5011803;28;20061;-65
2022/06/25 05:34:58;;;;;;;3.95;2.20;;;;;;;18.85;78.04;101087.66;5013016;28;20496;-65
2022/06/25 05:37:24;;;;;;;4.03;2.42;;;;;;;18.85;77.93;101092.88;5014033;28;20034;-64
2022/06/25 05:39:50;;;;;;;7.72;2.70;;;;;;;18.92;78.40;101099.78;5015958;28;20034;-64
2022/06/25 05:42:15;;;;;;;7.38;2.28;;;;;;;19.01;78.17;101097.19;5012961;28;20121;-65
2022/06/25 05:44:41;;;;;;;5.40;2.03;;;;;;;19.14;78.22;101098.00;5010372;28;20095;-65
2022/06/25 05:47:06;;;;;;;4.45;2.22;;;;;;;19.21;77.09;101097.97;5012705;28;20034;-65
2022/06/25 05:49:32;;;;;;;4.60;2.28;;;;;;;19.25;76.74;101107.53;5013705;28;20036;-65
2022/06/25 05:51:57;;;;;;;4.75;2.40;;;;;;;19.30;77.32;101107.50;5009302;28;20022;-65
2022/06/25 05:54:22;;;;;;;3.83;2.00;;;;;;;19.31;76.92;101105.75;5010396;28;20045;-65
2022/06/25 05:56:48;;;;;;;6.03;2.30;;;;;;;19.36;77.15;101111.84;5010528;28;20041;-65
2022/06/25 05:59:13;;;;;;;3.08;2.00;;;;;;;19.37;76.37;101118.78;5011754;28;20037;-64
2022/06/25 06:01:38;;;;;;;5.18;2.72;;;;;;;19.35;76.57;101110.06;5008189;28;20025;-64
2022/06/25 06:04:05;;;;;;;5.40;2.17;;;;;;;19.38;77.05;101116.16;5006750;28;20097;-64
2022/06/25 06:06:30;;;;;;;5.18;1.92;;;;;;;19.41;76.52;101116.13;4995570;28;20038;-65
2022/06/25 06:08:56;;;;;;;3.30;2.10;;;;;;;19.40;76.75;101123.97;5010819;28;20434;-65
2022/06/25 06:11:21;;;;;;;5.85;1.80;;;;;;;19.45;76.32;101125.69;5011263;28;20037;-65
2022/06/25 06:13:47;;;;;;;4.25;2.10;;;;;;;19.48;76.13;101133.50;5008588;28;20386;-65
2022/06/25 06:16:12;;;;;;;4.07;1.95;;;;;;;19.52;75.86;101135.22;5010915;28;20041;-65
2022/06/25 06:18:37;;;;;;;5.43;2.35;;;;;;;19.56;76.18;101138.69;5005662;28;20061;-65
2022/06/25 06:21:03;;;;;;;4.88;2.30;;;;;;;19.57;76.80;101132.59;5008911;28;20041;-65
2022/06/25 06:23:28;;;;;;;5.60;2.40;;;;;;;19.60;75.86;101137.84;5010075;28;20026;-65
2022/06/25 06:25:53;;;;;;;9.05;2.45;;;;;;;19.67;76.12;101138.69;5013428;28;20104;-65
2022/06/25 06:28:19;;;;;;;5.05;2.25;;;;;;;19.71;76.01;101142.97;5009773;28;20473;-65
2022/06/25 06:30:46;;;;;;;4.72;2.22;;;;;;;19.75;75.55;101144.72;5010672;28;20380;-65
2022/06/25 06:33:12;;;;;;;5.10;2.30;;;;;;;19.73;75.37;101142.13;4992575;28;20048;-65
2022/06/25 06:35:37;;;;;;;5.10;2.22;;;;;;;19.85;76.41;101151.63;5010865;28;20112;-65
2022/06/25 06:38:02;;;;;;;4.93;2.30;;;;;;;19.91;75.90;101146.38;5009857;28;20485;-65
2022/06/25 06:40:28;;;;;;;6.93;2.47;;;;;;;19.95;76.23;101145.44;5009283;28;20033;-65
2022/06/25 06:42:55;;;;;;;4.85;2.75;;;;;;;19.96;74.90;101142.00;5009982;28;20026;-65
2022/06/25 06:45:21;;;;;;;7.13;2.65;;;;;;;20.08;75.74;101149.75;5008709;28;20041;-65
2022/06/25 06:47:46;;;;;;;5.63;2.53;;;;;;;20.12;74.49;101147.09;5008353;28;20028;-65
2022/06/25 06:50:12;;;;;;;5.70;2.67;;;;;;;20.16;74.63;101148.81;5009540;28;20033;-65
2022/06/25 06:52:37;;;;;;;5.07;2.33;;;;;;;20.06;73.30;101148.00;5016951;28;20101;-65
2022/06/25 06:55:04;;;;;;;7.00;2.40;;;;;;;20.05;73.90;101148.88;5009226;28;20713;-65
2022/06/25 06:57:31;;;;;;;4.30;2.47;;;;;;;20.04;73.49;101153.25;5012353;28;20037;-65
2022/06/25 06:59:58;;;;;;;5.72;2.63;;;;;;;20.11;74.86;101153.19;5009387;28;20038;-65
2022/06/25 07:02:25;;;;;;;4.45;2.50;;;;;;;20.16;74.35;101144.47;5013264;28;20037;-65
2022/06/25 07:04:52;;;;;;;6.07;2.22;;;;;;;20.33;74.46;101152.19;5013143;28;20133;-65
2022/06/25 07:07:17;;;;;;;5.55;2.13;;;;;;;20.39;73.45;101152.13;5013197;28;20048;-65
2022/06/25 07:09:42;;;;;;;5.47;2.42;;;;;;;20.53;73.39;101142.47;5016893;28;20037;-65
2022/06/25 07:12:08;;;;;;;5.05;2.28;;;;;;;20.69;72.28;101151.03;5013052;28;20034;-65
2022/06/25 07:14:33;;;;;;;4.03;2.40;;;;;;;20.83;74.16;101151.78;5009924;28;20045;-66
2022/06/25 07:16:58;;;;;;;4.72;2.55;;;;;;;20.91;72.31;101154.31;5004904;28;20030;-65
2022/06/25 07:19:24;;;;;;;3.88;2.00;;;;;;;21.00;72.17;101153.38;4991580;28;20037;-65
2022/06/25 07:21:49;;;;;;;8.15;2.20;;;;;;;21.16;71.85;101157.53;5008769;28;20516;-65
2022/06/25 07:24:15;;;;;;;5.35;2.08;;;;;;;21.23;71.85;101158.31;5007641;28;20057;-65
2022/06/25 07:26:40;;;;;;;5.95;2.20;;;;;;;21.22;71.63;101147.00;5008532;28;20681;-66
2022/06/25 07:29:06;;;;;;;4.60;2.33;;;;;;;21.26;70.77;101158.31;5007846;28;20108;-65
2022/06/25 07:31:31;;;;;;;10.40;2.58;;;;;;;21.30;71.29;101154.81;5007984;28;20026;-65
2022/06/25 07:33:56;;;;;;;4.75;2.40;;;;;;;21.36;70.94;101149.50;5011161;28;20029;-65
2022/06/25 07:36:22;;;;;;;4.43;2.10;;;;;;;21.50;70.94;101151.94;5009457;28;20503;-65
2022/06/25 07:38:47;;;;;;;8.05;2.30;;;;;;;21.52;70.79;101155.41;5004236;28;20041;-66
2022/06/25 07:41:13;;;;;;;4.93;2.20;;;;;;;21.58;71.24;101160.56;4991480;28;20087;-66
2022/06/25 07:43:38;;;;;;;4.18;2.00;;;;;;;21.62;70.67;101167.50;5011912;28;20061;-65
2022/06/25 07:46:04;;;;;;;4.90;2.03;;;;;;;21.64;70.08;101166.59;4993624;28;20044;-66
2022/06/25 07:48:30;;;;;;;5.05;2.10;;;;;;;21.57;69.90;101167.53;5009443;28;20034;-66
2022/06/25 07:53:39;;;;;;;4.55;2.00;;;;;;;21.60;69.78;101174.50;5011510;28;20555;-65
2022/06/25 07:56:06;;;;;;;5.50;2.10;;;;;;;21.66;70.03;101170.06;5012034;28;20124;-66
2022/06/25 07:58:32;;;;;;;5.38;1.85;;;;;;;21.66;69.79;101156.13;5013690;28;20065;-66
2022/06/25 08:00:57;;;;;;;4.65;2.03;;;;;;;21.57;69.66;101164.06;5010995;28;20507;-65
2022/06/25 08:03:22;;;;;;;4.20;1.92;;;;;;;21.46;68.33;101171.19;4992389;28;20397;-65
2022/06/25 08:05:48;;;;;;;4.60;2.00;;;;;;;21.40;68.98;101169.50;5010232;28;20045;-65
2022/06/25 08:08:14;;;;;;;4.18;2.10;;;;;;;21.36;69.82;101173.06;5010023;28;20559;-65
2022/06/25 08:10:42;;;;;;;4.18;2.00;;;;;;;21.32;70.16;101169.59;5006837;28;20531;-66
2022/06/25 08:13:08;;;;;;;5.65;2.10;;;;;;;21.27;71.49;101171.34;5013057;28;20038;-65
2022/06/25 08:15:33;;;;;;;5.07;2.20;;;;;;;21.27;71.65;101173.97;5009474;28;20040;-65
2022/06/25 08:17:59;;;;;;;5.78;2.35;;;;;;;21.27;73.57;101168.75;5010970;28;20117;-65
2022/06/25 08:20:24;;;;;;;4.47;1.85;;;;;;;21.23;71.15;101168.78;5013732;28;20542;-65
2022/06/25 08:22:50;;;;;;;5.10;1.60;;;;;;;21.22;71.28;101170.53;5007452;28;20048;-65
2022/06/25 08:25:15;;;;;;;1.95;1.30;;;;;;;21.15;70.04;101172.34;5014759;28;20045;-65
2022/06/25 08:27:51;;;;;;;3.00;1.38;;;;;;;21.21;70.79;101181.88;5011882;28;20050;-66
2022/06/25 08:30:18;;;;;;;4.25;1.52;;;;;;;21.15;71.25;101176.72;5010668;28;20105;-65
2022/06/25 08:32:44;;;;;;;4.88;1.55;;;;;;;21.12;71.08;101182.00;5019186;28;20124;-65
2022/06/25 08:35:10;;;;;;;4.88;1.70;;;;;;;21.06;71.03;101182.06;5010012;28;20116;-65
2022/06/25 08:37:39;;;;;;;3.05;1.50;;;;;;;21.03;70.38;101187.31;5004988;28;20033;-65
2022/06/25 08:40:07;;;;;;;5.35;1.45;;;;;;;20.99;70.72;101185.59;5010979;28;20396;-65
2022/06/25 08:42:32;;;;;;;4.65;1.50;;;;;;;20.98;71.65;101181.25;5012437;28;20026;-65
2022/06/25 08:44:57;;;;;;;3.05;1.40;;;;;;;20.96;71.47;101183.03;5008984;28;20025;-65
2022/06/25 08:47:23;;;;;;;2.67;1.33;;;;;;;20.95;71.48;101183.91;5012656;28;20029;-65
2022/06/25 08:49:48;;;;;;;4.22;1.50;;;;;;;20.87;71.13;101176.16;5012622;28;20057;-66
2022/06/25 08:52:18;;;;;;;4.18;1.60;;;;;;;20.87;72.03;101182.25;5017444;28;20116;-65
2022/06/25 08:54:45;;;;;;;3.92;1.40;;;;;;;20.95;72.43;101174.31;5011464;28;20061;-65
2022/06/25 08:57:10;;;;;;;3.42;1.40;;;;;;;21.10;72.06;101183.75;5011553;28;20120;-65
2022/06/25 08:59:37;;;;;;;4.43;1.50;;;;;;;21.25;71.35;101191.44;4999742;28;20571;-65
2022/06/25 09:02:03;;;;;;;2.40;1.58;;;;;;;21.33;70.03;101181.78;5013580;28;20026;-65
2022/06/25 09:04:28;;;;;;;4.20;1.35;;;;;;;21.48;69.68;101178.16;5016396;28;20054;-65
2022/06/25 09:07:14;;;;;;;3.47;1.50;;;;;;;21.64;71.65;101182.28;5013409;28;20064;-66
2022/06/25 09:09:45;;;;;;;3.28;1.45;;;;;;;21.73;70.85;101186.56;5012030;28;20032;-65
2022/06/25 09:12:13;;;;;;;3.20;1.58;;;;;;;21.78;69.88;101195.22;5008391;28;20162;-65
2022/06/25 09:14:38;;;;;;;3.70;1.60;;;;;;;21.82;68.89;101190.78;5010363;28;20021;-65
2022/06/25 09:17:12;;;;;;;3.28;1.35;;;;;;;21.96;68.33;101188.84;5012158;28;20040;-65
2022/06/25 09:19:42;;;;;;;4.68;1.67;;;;;;;21.93;68.87;101189.75;5011730;28;20066;-66
2022/06/25 09:22:10;;;;;;;3.67;1.40;;;;;;;21.90;68.77;101188.91;5012514;28;20026;-65
2022/06/25 09:25:03;;;;;;;3.65;1.80;;;;;;;22.00;70.36;101189.69;5009725;28;20026;-65
2022/06/25 09:27:28;;;;;;;4.10;1.60;;;;;;;21.90;69.66;101187.19;5011893;28;20052;-66
2022/06/25 09:29:54;;;;;;;3.38;1.60;;;;;;;21.87;71.00;101194.22;5013363;28;20025;-66
2022/06/25 09:32:19;;;;;;;4.20;1.40;;;;;;;21.81;69.26;101183.81;5013612;28;20368;-65
2022/06/25 09:34:45;;;;;;;3.47;1.42;;;;;;;21.77;69.12;101187.34;5008331;28;20038;-66
2022/06/25 09:37:19;;;;;;;3.85;1.80;;;;;;;21.74;69.27;101183.03;5011847;28;20034;-65
2022/06/25 09:39:46;;;;;;;2.90;1.40;;;;;;;21.72;70.36;101183.94;5010882;28;20092;-66
2022/06/25 09:42:29;;;;;;;4.90;1.40;;;;;;;21.74;69.25;101183.03;5018740;28;20064;-65
2022/06/25 09:45:01;;;;;;;4.53;1.40;;;;;;;21.70;69.31;101183.97;5013132;28;20030;-65
2022/06/25 09:47:27;;;;;;;3.13;1.20;;;;;;;21.72;68.66;101184.81;5011265;28;20060;-65
2022/06/25 09:50:09;;;;;;;3.97;1.40;;;;;;;21.84;69.33;101186.38;5010411;28;20033;-65
2022/06/25 09:52:36;;;;;;;2.00;1.23;;;;;;;21.86;69.09;101187.25;5011459;28;20080;-66
2022/06/25 09:55:03;;;;;;;2.15;1.00;;;;;;;21.89;68.49;101193.28;5011325;28;20081;-65
2022/06/25 09:57:31;;;;;;;3.92;1.17;;;;;;;21.88;68.12;101194.19;5017463;28;20026;-65
2022/06/25 09:59:59;;;;;;;2.58;1.17;;;;;;;21.95;68.16;101200.19;5011785;28;20496;-65
2022/06/25 10:02:29;;;;;;;4.90;1.20;;;;;;;21.92;67.65;101198.50;5011709;28;20028;-65
2022/06/25 10:05:01;;;;;;;3.47;1.10;;;;;;;21.93;68.80;101197.63;5015858;28;20062;-66
2022/06/25 10:08:12;;;;;;;4.35;1.50;;;;;;;21.95;69.35;101203.69;5014595;28;20141;-65
2022/06/25 10:10:19;;;;;;;3.83;1.25;;;;;;;21.99;70.13;101204.53;4996128;28;20041;-65
2022/06/25 10:12:47;;;;;;;2.28;1.33;;;;;;;21.99;68.25;101194.06;5015973;28;20463;-66
2022/06/25 10:15:18;;;;;;;2.95;1.10;;;;;;;22.07;67.97;101200.03;5016330;28;20025;-65
2022/06/25 10:17:48;;;;;;;3.65;1.35;;;;;;;22.10;67.48;101193.94;5011063;28;20026;-65
2022/06/25 10:20:16;;;;;;;4.97;1.30;;;;;;;22.12;67.72;101194.78;5010652;28;20032;-66
2022/06/25 10:22:43;;;;;;;2.78;1.23;;;;;;;22.09;67.00;101192.19;4999052;28;20030;-65
2022/06/25 10:25:15;;;;;;;3.13;1.27;;;;;;;22.12;66.57;101193.03;5018192;28;20401;-66
2022/06/25 10:27:47;;;;;;;1.90;1.10;;;;;;;22.18;66.72;101197.31;5017570;28;20419;-66
2022/06/25 10:30:15;;;;;;;2.47;1.02;;;;;;;22.23;66.86;101192.88;5010851;28;20119;-66
2022/06/25 10:32:49;;;;;;;2.03;1.10;;;;;;;22.37;66.48;101185.66;5015299;28;20028;-65
2022/06/25 10:35:34;;;;;;;2.65;1.15;;;;;;;22.52;66.54;101181.94;5009134;28;20022;-66
2022/06/25 10:38:03;;;;;;;5.43;1.30;;;;;;;22.59;66.24;101182.72;5010377;28;20420;-65
2022/06/25 10:40:47;;;;;;;2.55;1.55;;;;;;;22.58;65.09;101183.59;5012838;28;20030;-66
2022/06/25 10:43:37;;;;;;;3.85;1.20;;;;;;;22.64;65.30;101183.50;5012938;28;20026;-65
2022/06/25 10:46:22;;;;;;;4.68;1.25;;;;;;;22.70;65.21;101179.03;5010663;28;20022;-66
2022/06/25 10:49:04;;;;;;;4.18;1.20;;;;;;;22.91;65.08;101183.03;5010078;28;20024;-66
2022/06/25 10:51:34;;;;;;;3.58;0.93;;;;;;;22.98;63.99;101179.41;5010611;28;20062;-66
2022/06/25 10:54:01;;;;;;;3.60;1.35;;;;;;;23.07;64.76;101181.00;5008577;28;20025;-65
2022/06/25 10:56:41;;;;;;;3.72;1.08;;;;;;;23.20;65.09;101179.03;5011346;28;20468;-66
2022/06/25 10:59:06;;;;;;;2.63;1.10;;;;;;;23.10;64.46;101177.47;5006473;28;20614;-66
2022/06/25 11:01:33;;;;;;;4.07;1.10;;;;;;;23.04;66.03;101183.69;4989311;28;20117;-65
2022/06/25 11:04:00;;;;;;;2.83;1.08;;;;;;;23.19;64.70;101170.28;4979534;28;20074;-65
2022/06/25 11:06:33;;;;;;;2.08;0.90;;;;;;;23.25;62.24;101169.31;4983403;28;20035;-66
2022/06/25 11:09:09;;;;;;;1.90;0.68;;;;;;;23.31;61.58;101171.81;4983944;28;20038;-66
2022/06/25 11:11:36;;;;;;;3.08;1.38;;;;;;;23.28;60.69;101164.84;4989388;28;20426;-66
2022/06/25 11:14:11;;;;;;;1.30;0.70;;;;;;;23.36;62.22;101167.34;4988957;28;20030;-66
2022/06/25 11:16:36;;;;;;;1.23;0.60;;;;;;;23.50;61.30;101162.66;4990398;28;20069;-66
2022/06/25 11:19:02;;;;;;;2.70;0.63;;;;;;;23.53;60.62;101159.97;4990574;28;20034;-66
2022/06/25 11:21:34;;;;;;;1.42;0.52;;;;;;;23.63;60.62;101168.56;4990744;28;20030;-66
2022/06/25 11:24:09;;;;;;;2.42;0.80;;;;;;;23.67;60.42;101166.75;4988202;28;20097;-65
2022/06/25 11:29:48;;;;;;;2.83;0.82;;;;;;;23.68;59.61;101171.09;4990456;28;20445;-65
2022/06/25 11:32:18;;;;;;;2.67;0.70;;;;;;;23.68;59.93;101169.34;4990446;28;20041;-66
2022/06/25 11:34:44;;;;;;;1.88;0.70;;;;;;;23.67;58.33;101170.22;4995125;28;20034;-65